createdAt,value
2023-02-27T00:00:19.937Z,6.80
2023-02-27T00:05:25.055Z,5.70
2023-02-27T00:10:27.684Z,5.85
2023-02-27T00:15:32.232Z,4.10
2023-02-27T00:20:38.432Z,7.97
2023-02-27T00:25:44.947Z,4.15
2023-02-27T00:30:47.664Z,4.85
2023-02-27T00:36:01.769Z,6.03
2023-02-27T00:41:04.725Z,5.37
2023-02-27T00:46:09.348Z,5.47
2023-02-27T00:51:12.324Z,4.22
2023-02-27T00:56:15.086Z,3.77
2023-02-27T01:01:18.110Z,4.60
2023-02-27T01:06:21.226Z,4.50
2023-02-27T01:11:25.781Z,5.07
2023-02-27T01:16:29.113Z,5.17
2023-02-27T01:21:32.372Z,7.13
2023-02-27T01:26:35.290Z,6.93
2023-02-27T01:31:38.341Z,4.00
2023-02-27T01:36:45.485Z,4.17
2023-02-27T01:41:51.787Z,4.43
2023-02-27T01:46:54.612Z,9.75
2023-02-27T01:52:11.130Z,6.53
2023-02-27T01:57:13.937Z,5.43
2023-02-27T02:02:27.470Z,5.17
2023-02-27T02:12:39.335Z,4.87
2023-02-27T02:17:57.626Z,8.10
2023-02-27T02:23:27.164Z,8.73
2023-02-27T02:29:12.597Z,5.17
2023-02-27T02:34:35.402Z,3.90
2023-02-27T02:40:14.907Z,5.07
2023-02-27T02:45:36.397Z,7.87
2023-02-27T02:50:52.921Z,4.03
2023-02-27T02:56:15.132Z,8.17
2023-02-27T03:02:07.429Z,6.07
2023-02-27T03:07:38.507Z,5.37
2023-02-27T03:12:46.751Z,6.87
2023-02-27T03:18:00.632Z,3.77
2023-02-27T03:23:15.605Z,6.67
2023-02-27T03:28:25.124Z,7.37
2023-02-27T03:33:43.835Z,5.90
2023-02-27T03:39:02.730Z,5.47
2023-02-27T03:44:15.543Z,9.77
2023-02-27T03:49:18.404Z,9.40
2023-02-27T03:54:30.466Z,6.17
2023-02-27T03:59:34.495Z,9.13
2023-02-27T04:04:37.649Z,9.82
2023-02-27T04:10:40.882Z,6.13
2023-02-27T04:16:17.930Z,8.53
2023-02-27T04:21:30.348Z,9.13
2023-02-27T04:26:43.713Z,14.03
2023-02-27T04:32:20.116Z,6.82
2023-02-27T04:37:42.450Z,11.47
2023-02-27T04:42:55.103Z,9.53
2023-02-27T04:48:09.508Z,12.30
2023-02-27T04:53:20.997Z,15.05
2023-02-27T04:58:45.137Z,11.63
2023-02-27T05:03:52.125Z,16.00
2023-02-27T05:09:32.972Z,22.40
2023-02-27T05:14:46.805Z,28.30
2023-02-27T05:19:49.680Z,62.87
2023-02-27T05:24:59.292Z,78.20
2023-02-27T05:30:38.930Z,77.03
2023-02-27T05:36:10.589Z,82.40
2023-02-27T05:41:28.295Z,70.27
2023-02-27T05:46:36.368Z,65.73
2023-02-27T05:51:41.643Z,70.57
2023-02-27T05:56:46.971Z,57.57
2023-02-27T06:01:50.188Z,68.77
2023-02-27T06:06:53.367Z,76.60
2023-02-27T06:11:56.528Z,74.30
2023-02-27T06:16:59.648Z,100.07
2023-02-27T06:22:02.304Z,160.43
2023-02-27T06:27:05.492Z,116.50
2023-02-27T06:32:08.350Z,108.70
2023-02-27T06:37:11.512Z,102.13
2023-02-27T06:42:15.494Z,81.73
2023-02-27T06:47:18.245Z,65.77
2023-02-27T06:52:21.671Z,83.53
2023-02-27T06:57:24.382Z,94.40
2023-02-27T07:02:27.746Z,56.90
2023-02-27T07:07:34.474Z,81.93
2023-02-27T07:12:40.892Z,41.47
2023-02-27T07:17:44.256Z,27.67
2023-02-27T07:22:47.543Z,22.57
2023-02-27T07:27:50.955Z,13.30
2023-02-27T07:32:53.609Z,8.98
2023-02-27T07:37:56.677Z,8.63
2023-02-27T07:42:59.356Z,9.27
2023-02-27T07:48:02.483Z,6.93
2023-02-27T07:53:08.045Z,8.70
2023-02-27T07:58:10.816Z,8.52
2023-02-27T08:03:13.647Z,8.15
2023-02-27T08:08:16.351Z,8.90
2023-02-27T08:13:30.095Z,7.40
2023-02-27T08:18:38.813Z,7.15
2023-02-27T08:23:42.654Z,8.13
2023-02-27T08:28:45.451Z,7.67
2023-02-27T08:33:49.607Z,6.43
2023-02-27T08:38:55.886Z,8.82
2023-02-27T08:43:58.625Z,6.82
2023-02-27T08:49:01.434Z,5.72
2023-02-27T08:54:04.513Z,5.57
2023-02-27T08:59:07.092Z,9.73
2023-02-27T09:04:09.808Z,9.75
2023-02-27T09:09:12.617Z,12.77
2023-02-27T09:14:15.195Z,8.73
2023-02-27T09:19:17.915Z,5.05
2023-02-27T09:24:21.022Z,6.40
2023-02-27T09:29:24.113Z,7.75
2023-02-27T09:34:26.904Z,10.77
2023-02-27T09:39:30.285Z,6.93
2023-02-27T09:44:50.069Z,9.15
2023-02-27T09:49:57.058Z,6.13
2023-02-27T09:54:59.877Z,11.20
2023-02-27T10:00:15.870Z,14.40
2023-02-27T10:05:58.628Z,12.07
2023-02-27T10:11:07.599Z,11.55
2023-02-27T10:16:15.439Z,8.20
2023-02-27T10:21:33.374Z,3.58
2023-02-27T10:26:42.738Z,4.78
2023-02-27T10:31:48.765Z,6.65
2023-02-27T10:36:52.346Z,2.25
2023-02-27T10:42:05.504Z,3.00
2023-02-27T10:47:12.954Z,5.40
2023-02-27T10:52:18.061Z,3.85
2023-02-27T10:57:42.333Z,4.43
2023-02-27T11:02:48.894Z,16.63
2023-02-27T11:07:52.229Z,3.92
2023-02-27T11:13:06.733Z,14.88
2023-02-27T11:18:26.743Z,6.25
2023-02-27T11:23:29.857Z,3.75
2023-02-27T11:28:32.416Z,12.75
2023-02-27T11:33:40.487Z,1.55
2023-02-27T11:38:50.005Z,3.03
2023-02-27T11:43:55.350Z,1.92
2023-02-27T11:49:01.739Z,2.30
2023-02-27T11:54:14.197Z,1.00
2023-02-27T11:59:37.786Z,1.80
2023-02-27T12:05:02.415Z,2.13
2023-02-27T12:10:16.817Z,4.53
2023-02-27T12:15:30.769Z,1.50
2023-02-27T12:20:52.147Z,3.15
2023-02-27T12:26:01.753Z,4.47
2023-02-27T12:31:32.654Z,3.00
2023-02-27T12:36:35.364Z,3.70
2023-02-27T12:42:19.283Z,7.80
2023-02-27T12:47:46.764Z,7.72
2023-02-27T12:53:24.376Z,6.43
2023-02-27T12:58:53.051Z,2.25
2023-02-27T13:04:07.266Z,4.25
2023-02-27T13:09:19.390Z,8.70
2023-02-27T13:15:13.069Z,15.82
2023-02-27T13:20:37.958Z,9.00
2023-02-27T13:25:44.935Z,7.05
2023-02-27T13:31:10.046Z,14.00
2023-02-27T13:36:31.873Z,3.65
2023-02-27T13:41:38.268Z,2.42
2023-02-27T13:46:40.844Z,5.03
2023-02-27T13:51:48.131Z,3.50
2023-02-27T13:57:09.326Z,3.03
2023-02-27T14:02:11.842Z,1.85
2023-02-27T14:07:19.296Z,4.15
2023-02-27T14:12:44.024Z,6.07
2023-02-27T14:17:50.956Z,5.03
2023-02-27T14:23:16.166Z,5.60
2023-02-27T14:28:27.575Z,26.10
2023-02-27T14:33:55.832Z,17.48
2023-02-27T14:44:27.897Z,4.25
2023-02-27T14:49:36.094Z,5.28
2023-02-27T14:54:38.818Z,3.80
2023-02-27T14:59:50.813Z,4.72
2023-02-27T15:05:15.883Z,3.30
2023-02-27T15:10:26.787Z,4.22
2023-02-27T15:15:29.895Z,4.70
2023-02-27T15:20:35.766Z,10.70
2023-02-27T15:25:39.918Z,7.47
2023-02-27T15:30:47.519Z,6.07
2023-02-27T15:35:50.297Z,6.45
2023-02-27T15:40:53.413Z,8.45
2023-02-27T15:45:58.216Z,7.57
2023-02-27T15:51:04.371Z,2.60
2023-02-27T15:56:12.277Z,10.68
2023-02-27T16:01:23.783Z,9.20
2023-02-27T16:06:32.653Z,5.32
2023-02-27T16:11:37.700Z,9.77
2023-02-27T16:16:40.338Z,6.55
2023-02-27T16:22:16.247Z,3.83
2023-02-27T16:27:24.743Z,3.22
2023-02-27T16:32:44.214Z,8.10
2023-02-27T16:37:48.109Z,13.25
2023-02-27T16:42:52.000Z,11.75
2023-02-27T16:47:59.713Z,9.00
2023-02-27T16:53:02.360Z,9.68
2023-02-27T16:58:05.053Z,6.30
2023-02-27T17:03:07.759Z,15.75
2023-02-27T17:08:11.816Z,12.18
2023-02-27T17:13:14.477Z,16.60
2023-02-27T17:18:17.038Z,18.02
2023-02-27T17:23:20.258Z,11.23
2023-02-27T17:28:24.126Z,11.15
2023-02-27T17:33:47.077Z,16.05
2023-02-27T17:38:55.817Z,18.10
2023-02-27T17:43:59.380Z,11.38
2023-02-27T17:49:02.029Z,8.10
2023-02-27T17:54:05.938Z,12.48
2023-02-27T17:59:08.829Z,8.30
2023-02-27T18:04:12.810Z,8.35
2023-02-27T18:09:15.429Z,8.63
2023-02-27T18:14:18.290Z,20.13
2023-02-27T18:19:20.898Z,15.05
2023-02-27T18:24:23.570Z,9.27
2023-02-27T18:29:26.185Z,11.38
2023-02-27T18:34:29.497Z,8.60
2023-02-27T18:39:32.113Z,8.05
2023-02-27T18:44:34.736Z,7.78
2023-02-27T18:49:37.389Z,5.90
2023-02-27T18:54:40.920Z,4.88
2023-02-27T18:59:46.532Z,4.78
2023-02-27T19:04:49.588Z,6.07
2023-02-27T19:09:52.294Z,3.58
2023-02-27T19:14:55.493Z,2.63
2023-02-27T19:19:58.045Z,2.20
2023-02-27T19:25:01.070Z,4.25
2023-02-27T19:30:04.253Z,8.18
2023-02-27T19:35:10.514Z,13.35
2023-02-27T19:40:14.631Z,3.95
2023-02-27T19:45:17.449Z,2.70
2023-02-27T19:50:20.220Z,4.88
2023-02-27T19:55:22.979Z,3.78
2023-02-27T20:00:25.690Z,3.40
2023-02-27T20:05:31.129Z,3.92
2023-02-27T20:10:33.720Z,5.13
2023-02-27T20:15:36.526Z,2.03
2023-02-27T20:20:40.048Z,3.42
2023-02-27T20:25:43.463Z,11.05
2023-02-27T20:30:46.656Z,3.03
2023-02-27T20:35:49.343Z,3.53
2023-02-27T20:40:58.275Z,3.90
2023-02-27T20:46:11.623Z,3.53
2023-02-27T20:51:18.520Z,5.68
2023-02-27T20:56:28.311Z,1.33
2023-02-27T21:01:31.370Z,1.55
2023-02-27T21:06:34.959Z,1.40
2023-02-27T21:11:37.978Z,0.77
2023-02-27T21:16:40.978Z,2.53
2023-02-27T21:21:43.554Z,2.67
2023-02-27T21:26:46.257Z,4.82
2023-02-27T21:31:50.676Z,1.95
2023-02-27T21:36:54.615Z,0.95
2023-02-27T21:41:57.211Z,1.25
2023-02-27T21:46:59.963Z,2.15
2023-02-27T21:52:02.608Z,1.50
2023-02-27T21:57:05.606Z,3.00
2023-02-27T22:02:09.725Z,2.75
2023-02-27T22:07:12.248Z,0.60
2023-02-27T22:12:16.208Z,3.03
2023-02-27T22:17:19.128Z,0.63
2023-02-27T22:22:21.809Z,3.47
2023-02-27T22:27:24.433Z,17.65
2023-02-27T22:32:27.034Z,4.28
2023-02-27T22:37:30.134Z,5.53
2023-02-27T22:42:32.674Z,3.53
2023-02-27T22:47:35.264Z,3.72
2023-02-27T22:52:38.492Z,3.63
2023-02-27T22:57:41.194Z,4.43
2023-02-27T23:02:43.754Z,12.40
2023-02-27T23:07:47.231Z,4.85
2023-02-27T23:12:50.399Z,1.23
2023-02-27T23:17:58.510Z,0.52
2023-02-27T23:23:07.937Z,0.38
2023-02-27T23:28:10.773Z,0.30
2023-02-27T23:33:13.304Z,3.55
2023-02-27T23:38:15.866Z,3.00
2023-02-27T23:43:37.112Z,1.10
2023-02-27T23:48:40.286Z,2.92
2023-02-27T23:53:43.616Z,0.77
2023-02-27T23:58:47.264Z,1.73
